Wheeler Sack Army Air Field
KGTB : now visible

Airfield :











YOU CAN JOIN US ON...

 
LOGIN :

Register | Disclaimer

   EN    FR    IT 

 









Legend :    VFR   Marginal VFR   IFR   Intensive IFR   Very Intensive IFR
Visi :
Ceiling :
>= 8 km
>= 3000ft
5 to 8 km
1000 to 3000 ft
1500m to 5 km
500 to 1000 ft
800 to 1500m
200 to 500 ft
< 800m
< 200 ft
Symbols :   Thunderstorms  Fog  Heavy snow  Heavy precipitations  Wind > 20 kt






- Airport Elevation : 688 ft


KGTB - Wheeler Sack Army Air Field

METAR N/A
TAF TAF KGTB
Valid from the 20 at 17:00 until the 21 at 23:00 UTC


201702Z 2017/2123 25012KT 9999 FEW020 FEW060 QNH2965INS
BECMG 2107/2108 17010G15KT 9000 -SHRA BKN035 520155 QNH2950INS
TEMPO 2108/2111 18015G25KT 8000 -TSRA BKN030CB
BECMG 2115/2116 18012G18KT 9999 NSW SCT030 OVC045 520055 QNH2950INS
BECMG 2117/2118 16025G35KT 8000 -SHRA BKN015 OVC030 530005 QNH2948INS
TEMPO 2118/2122 18025G40KT 4800 TSRAGR OVC015CB TX31/2116Z TN17/2105Z
KZBW FIR / North America



MET'MAP, your aeronautical weather chart ! - Copyright ORBIFLY December 2007 - Disclaimer

ORBIFLY MET'MAP TEAM :

Programming & Development : Alexandra Zaïnal
Concept & original design : Baudouin d'Aumeries
Assistance for programming : Marc-Olivier Méhu
Technical & hardware support : Manuel Goepfert

Contact : metmap@orbifly.com




SOURCES & CREDITS :

   NOAA       Earth
Advisory